Time;durP1;ratioP1;P1;durP2;ratioP2;P2;SDS_P1;SDS_P2;PMS_P1;PMS_P2;Temp;Humidity;BMP_temperature;BMP_pressure;BME280_temperature;BME280_humidity;BME280_pressure;Samples;Min_cycle;Max_cycle;Signal;HPM_P1;HPM_P2
2022/10/14 00:01:30;;;;;;;60.00;36.20;;;;;;;6.51;74.48;99160.26;86170;1294;22526;-74
2022/10/14 00:03:41;;;;;;;60.40;36.50;;;;;;;6.44;74.38;99160.80;85873;1289;98829;-74
2022/10/14 00:05:43;;;;;;;62.30;37.00;;;;;;;6.40;74.49;99153.92;86077;1282;22545;-75
2022/10/14 00:07:46;;;;;;;56.70;34.30;;;;;;;6.37;74.59;99153.33;86140;1283;22853;-75
2022/10/14 00:09:49;;;;;;;55.70;33.90;;;;;;;6.31;74.60;99154.55;85986;1291;99191;-74
2022/10/14 00:11:51;;;;;;;60.60;34.40;;;;;;;6.25;74.53;99155.23;85971;1286;22509;-74
2022/10/14 00:13:57;;;;;;;59.30;34.40;;;;;;;6.20;74.46;99155.71;85954;1293;97824;-74
2022/10/14 00:16:01;;;;;;;60.60;34.70;;;;;;;6.13;74.63;99154.67;85985;1283;22485;-75
2022/10/14 00:18:05;;;;;;;54.80;30.70;;;;;;;6.08;74.63;99158.12;86138;1293;22186;-75
2022/10/14 00:20:08;;;;;;;48.20;30.90;;;;;;;6.05;74.69;99161.54;85979;1291;98838;-74
2022/10/14 00:22:12;;;;;;;54.00;31.10;;;;;;;6.00;74.72;99165.14;86144;1286;22616;-74
2022/10/14 00:24:17;;;;;;;48.10;28.50;;;;;;;5.99;74.84;99168.66;86175;1291;22527;-75
2022/10/14 00:26:31;;;;;;;52.00;29.40;;;;;;;6.01;75.10;99173.84;85987;1288;97815;-75
2022/10/14 00:28:42;;;;;;;53.70;27.00;;;;;;;6.03;75.20;99169.08;85888;1293;22500;-75
2022/10/14 00:30:56;;;;;;;55.00;29.90;;;;;;;6.02;75.06;99165.27;86053;1286;23205;-74
2022/10/14 00:32:58;;;;;;;44.70;28.20;;;;;;;6.03;75.24;99160.72;85809;1293;98198;-75
2022/10/14 00:35:00;;;;;;;50.00;28.50;;;;;;;6.04;75.33;99161.02;86192;1297;22895;-74
2022/10/14 00:37:02;;;;;;;50.00;29.30;;;;;;;6.05;75.35;99162.92;85968;1300;22464;-74
2022/10/14 00:39:09;;;;;;;54.20;31.00;;;;;;;5.98;75.39;99146.36;85967;1283;98889;-75
2022/10/14 00:41:24;;;;;;;54.60;32.30;;;;;;;6.08;75.30;99155.86;86332;1291;22522;-75
2022/10/14 00:43:28;;;;;;;57.70;32.20;;;;;;;6.11;75.48;99154.92;85919;1293;24027;-74
2022/10/14 00:45:30;;;;;;;58.70;31.60;;;;;;;6.13;75.47;99151.91;86003;1291;97982;-74
2022/10/14 00:47:32;;;;;;;50.50;31.50;;;;;;;6.12;75.70;99146.51;86164;1283;24342;-74
2022/10/14 00:49:40;;;;;;;53.20;31.50;;;;;;;6.18;75.67;99146.17;85917;1290;23208;-74
2022/10/14 00:51:47;;;;;;;56.70;30.00;;;;;;;6.21;75.71;99142.25;86090;1283;98668;-74
2022/10/14 00:53:50;;;;;;;49.50;30.60;;;;;;;6.24;75.65;99139.38;86109;1291;22838;-74
2022/10/14 00:55:52;;;;;;;45.60;31.10;;;;;;;6.27;75.79;99137.20;86049;1291;98330;-75
2022/10/14 00:57:56;;;;;;;51.40;30.50;;;;;;;6.27;75.73;99135.09;85935;1289;25410;-74
2022/10/14 01:00:05;;;;;;;45.30;27.60;;;;;;;6.32;75.92;99135.48;85715;1286;24591;-74
2022/10/14 01:02:07;;;;;;;60.20;30.90;;;;;;;6.37;75.71;99139.20;86331;1290;97901;-75
2022/10/14 01:04:08;;;;;;;54.30;30.40;;;;;;;6.38;75.83;99137.41;85997;1294;23092;-75
2022/10/14 01:06:47;;;;;;;54.60;29.40;;;;;;;6.40;75.58;99139.62;86032;1286;22467;-74
2022/10/14 01:09:18;;;;;;;51.80;28.40;;;;;;;6.40;75.59;99133.85;85975;1286;99571;-73
2022/10/14 01:11:59;;;;;;;51.50;30.30;;;;;;;6.41;75.64;99135.39;86049;1292;22970;-74
2022/10/14 01:14:33;;;;;;;51.30;28.80;;;;;;;6.44;75.81;99132.54;86138;1283;98852;-75
2022/10/14 01:16:43;;;;;;;48.30;29.50;;;;;;;6.46;75.88;99130.36;86000;1290;22630;-73
2022/10/14 01:19:15;;;;;;;48.10;30.50;;;;;;;6.50;75.93;99125.20;86114;1290;22540;-74
2022/10/14 01:21:22;;;;;;;53.30;30.10;;;;;;;6.54;75.89;99120.71;86034;1289;97508;-74
2022/10/14 01:23:44;;;;;;;49.90;31.20;;;;;;;6.56;75.94;99116.64;85957;1283;22846;-73
2022/10/14 01:26:13;;;;;;;53.90;30.30;;;;;;;6.60;75.91;99118.98;85874;1289;24723;-77
2022/10/14 01:28:28;;;;;;;59.00;29.40;;;;;;;6.63;76.19;99126.73;86013;1289;22663;-74
2022/10/14 01:30:37;;;;;;;64.40;32.20;;;;;;;6.64;75.96;99120.41;86030;1283;22473;-74
2022/10/14 01:32:59;;;;;;;53.20;31.20;;;;;;;6.68;76.16;99120.83;85982;1288;97864;-74
2022/10/14 01:35:30;;;;;;;60.20;32.20;;;;;;;6.70;76.31;99119.73;86005;1291;22676;-75
2022/10/14 01:37:35;;;;;;;51.40;30.80;;;;;;;6.72;76.24;99116.70;86246;1290;22762;-75
2022/10/14 01:39:49;;;;;;;56.70;30.70;;;;;;;6.74;76.29;99119.78;86145;1293;98790;-75
2022/10/14 01:41:57;;;;;;;52.40;30.60;;;;;;;6.74;76.32;99115.77;86278;1291;24105;-75
2022/10/14 01:44:09;;;;;;;49.50;30.50;;;;;;;6.76;76.24;99113.95;86243;1291;99109;-75
2022/10/14 01:46:12;;;;;;;;;;;;;;;6.78;76.32;99107.45;86243;1288;23276;-77
2022/10/14 01:48:18;;;;;;;48.00;28.00;;;;;;;6.81;76.34;99113.79;86056;1283;22527;-74
2022/10/14 01:50:25;;;;;;;47.20;28.50;;;;;;;6.83;76.53;99110.42;86035;1287;98687;-74
2022/10/14 01:52:33;;;;;;;48.60;30.20;;;;;;;6.87;76.35;99111.69;86044;1290;25317;-74
2022/10/14 01:54:40;;;;;;;55.60;33.00;;;;;;;6.89;76.56;99109.70;85682;1293;22539;-74
2022/10/14 01:56:45;;;;;;;56.00;32.60;;;;;;;6.92;76.46;99107.88;85953;1290;98766;-74
2022/10/14 01:58:49;;;;;;;52.30;33.40;;;;;;;6.94;76.51;99109.73;85895;1286;22508;-74
2022/10/14 02:00:53;;;;;;;63.50;34.40;;;;;;;6.96;76.51;99108.44;85955;1286;22995;-74
2022/10/14 02:02:56;;;;;;;60.00;32.90;;;;;;;6.99;76.42;99102.24;85844;1293;99854;-74
2022/10/14 02:04:58;;;;;;;53.10;31.50;;;;;;;7.00;76.35;99105.70;85918;1289;23402;-74
2022/10/14 02:07:12;;;;;;;49.60;30.00;;;;;;;7.01;76.49;99103.05;85824;1300;25427;-75
2022/10/14 02:09:47;;;;;;;54.10;30.80;;;;;;;7.02;76.48;99101.64;86030;1299;99970;-73
2022/10/14 02:12:12;;;;;;;51.40;29.30;;;;;;;7.03;76.48;99102.32;86062;1286;22596;-75
2022/10/14 02:14:23;;;;;;;54.40;29.20;;;;;;;7.03;76.49;99102.13;86045;1291;98925;-74
2022/10/14 02:16:37;;;;;;;49.10;29.00;;;;;;;7.00;76.47;99099.08;86119;1289;22444;-73
2022/10/14 02:19:00;;;;;;;46.80;29.10;;;;;;;6.97;76.41;99096.17;85936;1286;24512;-74
2022/10/14 02:21:32;;;;;;;53.70;29.90;;;;;;;6.98;76.71;99093.02;85954;1283;97591;-74
2022/10/14 02:23:50;;;;;;;;;;;;;;;;;;;;;
2022/10/14 02:25:56;;;;;;;;;;;;;;;6.99;76.56;99088.95;86022;1284;22581;-73
2022/10/14 02:28:01;;;;;;;48.40;30.10;;;;;;;6.98;76.63;99083.40;86091;1289;25455;-74
2022/10/14 02:30:06;;;;;;;57.20;28.80;;;;;;;7.02;76.54;99086.79;86038;1290;23237;-75
2022/10/14 02:32:11;;;;;;;51.70;28.60;;;;;;;7.03;76.77;99085.36;85836;1293;98914;-74
2022/10/14 02:34:20;;;;;;;55.70;31.70;;;;;;;7.04;76.95;99078.69;86040;1285;26055;-75
2022/10/14 02:36:26;;;;;;;43.50;28.60;;;;;;;6.93;76.75;99065.39;86382;1291;22618;-75
2022/10/14 02:38:30;;;;;;;48.50;29.40;;;;;;;7.04;76.82;99080.95;86068;1294;98723;-74
2022/10/14 02:40:39;;;;;;;49.20;28.90;;;;;;;7.04;76.81;99081.80;86011;1292;24420;-73
2022/10/14 02:42:41;;;;;;;57.90;30.30;;;;;;;7.06;76.65;99081.05;85781;1286;25755;-74
2022/10/14 02:45:02;;;;;;;51.90;29.20;;;;;;;7.08;76.84;99081.53;86002;1289;98650;-75
2022/10/14 02:47:04;;;;;;;47.70;29.10;;;;;;;7.08;76.97;99080.27;85939;1286;22892;-74
2022/10/14 02:49:06;;;;;;;51.50;28.00;;;;;;;7.09;76.95;99081.32;85946;1291;22698;-75
2022/10/14 02:51:07;;;;;;;44.00;27.80;;;;;;;7.10;76.87;99078.98;85834;1286;99421;-75
2022/10/14 02:53:14;;;;;;;46.40;29.00;;;;;;;7.11;77.15;99079.67;85989;1283;22487;-75
2022/10/14 02:55:17;;;;;;;52.10;28.40;;;;;;;7.09;77.07;99076.77;86010;1290;22684;-75
2022/10/14 02:57:22;;;;;;;50.80;28.90;;;;;;;7.09;77.00;99077.29;86036;1289;99455;-74
2022/10/14 02:59:27;;;;;;;46.60;28.10;;;;;;;7.10;76.77;99075.86;85856;1286;23413;-75
2022/10/14 03:01:29;;;;;;;47.90;27.60;;;;;;;7.11;77.09;99077.23;86066;1284;22480;-74
2022/10/14 03:03:31;;;;;;;45.70;28.10;;;;;;;7.10;76.92;99077.94;85945;1289;97949;-75
2022/10/14 03:05:33;;;;;;;48.10;27.60;;;;;;;7.12;77.27;99075.11;85905;1283;22597;-76
2022/10/14 03:07:38;;;;;;;47.70;27.70;;;;;;;7.12;77.08;99076.32;85916;1287;22630;-73
2022/10/14 03:09:39;;;;;;;50.10;26.80;;;;;;;7.10;77.13;99079.35;85856;1286;99085;-75
2022/10/14 03:11:41;;;;;;;48.20;27.40;;;;;;;7.10;77.29;99075.67;85997;1289;22478;-74
2022/10/14 03:13:43;;;;;;;43.00;26.00;;;;;;;7.12;76.90;99077.19;85952;1286;22701;-75
2022/10/14 03:15:48;;;;;;;45.30;26.40;;;;;;;7.12;77.11;99074.38;85954;1286;98944;-75
2022/10/14 03:17:49;;;;;;;52.40;28.70;;;;;;;7.13;77.00;99076.63;86147;1289;22726;-75
2022/10/14 03:19:51;;;;;;;58.80;28.60;;;;;;;7.14;76.97;99071.36;85902;1289;25401;-74
2022/10/14 03:21:53;;;;;;;55.30;28.00;;;;;;;7.13;77.21;99072.25;85921;1289;97486;-74
2022/10/14 03:23:57;;;;;;;66.10;30.00;;;;;;;7.14;77.09;99076.60;85867;1293;22469;-74
2022/10/14 03:26:00;;;;;;;68.70;29.00;;;;;;;7.14;77.30;99073.30;85778;1289;98384;-75
2022/10/14 03:28:02;;;;;;;62.00;29.40;;;;;;;7.14;77.31;99073.81;86142;1290;23360;-75
2022/10/14 03:30:04;;;;;;;55.20;28.00;;;;;;;7.13;77.27;99074.87;85914;1286;22672;-75
2022/10/14 03:32:06;;;;;;;49.50;28.20;;;;;;;7.12;77.32;99074.76;86044;1287;101012;-75
2022/10/14 03:34:07;;;;;;;47.80;28.40;;;;;;;7.12;77.31;99070.39;85726;1293;26044;-75
2022/10/14 03:36:11;;;;;;;46.70;28.20;;;;;;;7.13;77.51;99071.92;86108;1283;22907;-74
2022/10/14 03:38:13;;;;;;;48.40;27.90;;;;;;;7.14;77.45;99072.22;85969;1294;98084;-75
2022/10/14 03:40:14;;;;;;;50.80;28.80;;;;;;;7.17;77.38;99070.92;86041;1290;24261;-74
2022/10/14 03:42:18;;;;;;;61.40;28.90;;;;;;;7.10;77.48;99055.59;86455;1290;22176;-74
2022/10/14 03:44:20;;;;;;;56.90;27.60;;;;;;;7.19;77.33;99066.14;85753;1292;99781;-75
2022/10/14 03:46:23;;;;;;;49.20;28.60;;;;;;;7.15;77.20;99058.94;86134;1293;26477;-75
2022/10/14 03:48:24;;;;;;;67.80;28.90;;;;;;;7.18;77.52;99059.18;86018;1293;22155;-75
2022/10/14 03:50:27;;;;;;;53.70;30.50;;;;;;;7.18;77.69;99062.69;82523;1299;5314524;-75
2022/10/14 03:52:35;;;;;;;59.90;31.30;;;;;;;7.14;77.48;99059.65;86129;1287;24321;-75
2022/10/14 03:54:38;;;;;;;51.30;30.20;;;;;;;7.11;77.52;99056.44;86185;1289;23851;-74
2022/10/14 03:56:40;;;;;;;49.80;29.50;;;;;;;7.12;77.73;99055.85;86116;1289;99106;-75
2022/10/14 03:58:42;;;;;;;49.40;29.30;;;;;;;7.15;77.39;99049.84;86000;1294;22492;-75
2022/10/14 04:00:44;;;;;;;49.30;29.00;;;;;;;7.16;77.66;99052.93;85965;1283;22524;-76
2022/10/14 04:02:46;;;;;;;54.30;31.20;;;;;;;7.17;77.65;99046.27;85890;1283;99163;-74
2022/10/14 04:04:53;;;;;;;52.00;28.70;;;;;;;7.10;77.63;99034.98;85876;1289;22645;-74
2022/10/14 04:06:58;;;;;;;46.00;28.50;;;;;;;7.18;77.60;99040.65;85945;1292;25323;-74
2022/10/14 04:08:59;;;;;;;58.80;27.30;;;;;;;7.23;77.68;99043.45;85898;1288;97552;-75
2022/10/14 04:11:04;;;;;;;58.70;27.90;;;;;;;7.24;77.68;99042.90;86115;1287;25542;-74
2022/10/14 04:13:06;;;;;;;51.90;28.10;;;;;;;7.25;77.79;99044.45;86068;1291;22481;-74
2022/10/14 04:15:08;;;;;;;49.40;27.80;;;;;;;7.26;77.69;99044.76;86044;1291;97797;-74
2022/10/14 04:17:09;;;;;;;61.80;27.20;;;;;;;7.27;77.70;99039.83;85793;1293;24302;-74
2022/10/14 04:19:11;;;;;;;41.20;27.30;;;;;;;7.28;77.81;99046.08;85967;1292;22607;-73
2022/10/14 04:21:14;;;;;;;48.60;26.70;;;;;;;7.29;78.06;99044.31;85670;1299;98280;-74
2022/10/14 04:23:15;;;;;;;46.50;26.60;;;;;;;7.27;77.86;99038.60;85762;1294;22562;-73
2022/10/14 04:25:17;;;;;;;41.90;27.40;;;;;;;7.34;77.82;99043.44;85812;1296;24324;-74
2022/10/14 04:27:19;;;;;;;45.60;27.00;;;;;;;7.36;77.66;99044.10;85784;1286;100033;-75
2022/10/14 04:29:21;;;;;;;62.10;28.40;;;;;;;7.37;78.04;99040.71;86064;1283;24809;-73
2022/10/14 04:31:22;;;;;;;64.30;27.00;;;;;;;7.40;77.99;99042.91;85937;1289;22504;-74
2022/10/14 04:33:25;;;;;;;55.50;28.50;;;;;;;7.42;77.85;99041.77;85986;1289;98819;-74
2022/10/14 04:35:36;;;;;;;78.90;28.90;;;;;;;7.44;77.95;99038.04;86082;1290;22427;-75
2022/10/14 04:37:40;;;;;;;77.20;27.60;;;;;;;7.45;78.04;99039.75;85896;1294;22562;-74
2022/10/14 04:39:42;;;;;;;68.10;28.40;;;;;;;7.46;78.10;99036.05;85758;1294;99291;-74
2022/10/14 04:41:44;;;;;;;72.20;28.20;;;;;;;7.47;77.93;99034.60;86162;1291;25559;-75
2022/10/14 04:43:46;;;;;;;68.80;28.60;;;;;;;7.48;78.18;99031.92;85919;1291;22547;-74
2022/10/14 04:45:48;;;;;;;73.70;28.50;;;;;;;7.52;78.25;99030.25;86028;1283;99773;-74
2022/10/14 04:47:51;;;;;;;50.40;27.70;;;;;;;7.54;77.95;99030.35;86085;1287;24259;-75
2022/10/14 04:49:53;;;;;;;54.10;28.50;;;;;;;7.56;77.89;99030.44;85829;1294;22646;-74
2022/10/14 04:51:57;;;;;;;55.30;29.10;;;;;;;7.58;78.05;99027.25;86106;1283;98627;-73
2022/10/14 04:53:59;;;;;;;61.70;30.80;;;;;;;7.59;78.23;99030.33;86090;1291;22498;-74
2022/10/14 04:56:06;;;;;;;70.50;29.50;;;;;;;7.61;78.02;99028.86;86151;1286;22581;-75
2022/10/14 04:58:16;;;;;;;63.90;30.60;;;;;;;7.63;78.26;99025.84;85959;1286;22546;-74
2022/10/14 05:00:18;;;;;;;51.60;28.80;;;;;;;7.64;78.20;99028.75;85811;1292;23357;-75
2022/10/14 05:02:23;;;;;;;56.30;28.10;;;;;;;7.66;78.11;99023.45;85941;1301;97939;-74
2022/10/14 05:04:38;;;;;;;56.00;28.40;;;;;;;7.69;78.10;99023.55;86079;1290;25575;-75
2022/10/14 05:06:43;;;;;;;48.40;28.60;;;;;;;7.64;78.21;99011.99;86070;1292;24172;-74
2022/10/14 05:08:47;;;;;;;73.00;29.20;;;;;;;7.69;78.29;99026.14;85987;1291;98790;-74
2022/10/14 05:10:56;;;;;;;56.80;28.40;;;;;;;7.70;78.13;99028.02;85948;1291;25407;-74
2022/10/14 05:12:58;;;;;;;96.50;28.40;;;;;;;7.72;78.41;99025.52;85996;1299;24339;-74
2022/10/14 05:14:59;;;;;;;70.90;28.50;;;;;;;7.72;78.42;99021.85;85878;1289;97557;-74
2022/10/14 05:17:04;;;;;;;64.40;29.50;;;;;;;7.73;78.19;99020.41;86083;1296;22539;-76
2022/10/14 05:19:06;;;;;;;93.10;30.80;;;;;;;7.75;78.13;99015.94;86084;1290;23241;-73
2022/10/14 05:21:08;;;;;;;70.70;29.70;;;;;;;7.77;78.18;99014.65;85670;1294;99165;-76
2022/10/14 05:23:10;;;;;;;73.80;29.10;;;;;;;7.72;78.15;98998.59;86131;1293;24450;-75
2022/10/14 05:25:13;;;;;;;97.70;29.20;;;;;;;7.82;78.53;99017.26;85997;1291;26515;-75
2022/10/14 05:27:18;;;;;;;79.40;29.50;;;;;;;7.86;78.48;99014.88;85836;1294;98776;-75
2022/10/14 05:29:20;;;;;;;95.80;29.60;;;;;;;7.88;78.39;99015.67;85765;1293;22434;-75
2022/10/14 05:31:22;;;;;;;63.60;30.00;;;;;;;7.89;78.42;99020.70;85960;1291;22516;-75
2022/10/14 05:33:24;;;;;;;76.90;28.10;;;;;;;7.89;78.59;99018.43;85654;1292;99415;-75
2022/10/14 05:35:28;;;;;;;53.10;29.30;;;;;;;7.91;78.28;99016.27;85860;1310;22609;-75
2022/10/14 05:37:30;;;;;;;80.30;32.70;;;;;;;7.92;78.56;99018.48;86041;1305;25893;-74
2022/10/14 05:39:32;;;;;;;176.00;34.00;;;;;;;7.95;78.57;99018.04;85967;1294;98080;-75
2022/10/14 05:41:34;;;;;;;158.40;32.40;;;;;;;7.95;78.93;99015.06;86023;1307;26578;-77
2022/10/14 05:43:39;;;;;;;118.40;32.00;;;;;;;7.99;78.97;99016.81;85730;1316;25379;-74
2022/10/14 05:45:41;;;;;;;122.00;31.90;;;;;;;8.03;78.32;99017.76;85815;1286;98890;-74
2022/10/14 05:47:46;;;;;;;98.00;29.60;;;;;;;8.01;78.60;99012.77;86158;1291;23805;-74
2022/10/14 05:49:48;;;;;;;89.00;30.70;;;;;;;8.02;78.61;99013.92;86033;1291;22485;-74
2022/10/14 05:51:50;;;;;;;79.90;31.10;;;;;;;8.05;79.00;99015.58;85799;1292;98670;-74
2022/10/14 05:53:52;;;;;;;72.90;32.60;;;;;;;8.07;78.64;99018.99;86040;1285;25255;-76
2022/10/14 05:56:07;;;;;;;75.50;32.00;;;;;;;8.03;78.56;99008.31;86117;1289;25292;-74
2022/10/14 05:58:09;;;;;;;83.00;30.60;;;;;;;8.11;78.95;99018.84;86147;1291;22613;-75
2022/10/14 06:00:12;;;;;;;76.30;32.10;;;;;;;8.13;78.85;99013.36;86066;1294;22627;-74
2022/10/14 06:02:15;;;;;;;82.90;27.90;;;;;;;8.11;78.66;99013.42;85886;1289;99166;-75
2022/10/14 06:04:19;;;;;;;77.70;30.50;;;;;;;8.10;78.79;99011.18;85865;1292;22611;-73
2022/10/14 06:06:20;;;;;;;73.10;31.50;;;;;;;8.11;78.99;99014.48;86415;1291;22936;-74
2022/10/14 06:08:26;;;;;;;79.80;33.50;;;;;;;8.12;78.52;99011.48;85861;1292;98648;-74
2022/10/14 06:10:28;;;;;;;77.50;33.80;;;;;;;8.12;78.48;99009.89;86204;1290;24308;-75
2022/10/14 06:12:31;;;;;;;71.40;35.10;;;;;;;8.11;78.65;99016.05;86027;1289;22535;-75
2022/10/14 06:14:33;;;;;;;76.20;36.90;;;;;;;8.12;78.61;99015.49;85819;1291;98876;-75
2022/10/14 06:16:34;;;;;;;79.60;38.70;;;;;;;8.14;78.63;99014.54;85988;1291;22552;-74
2022/10/14 06:18:37;;;;;;;87.60;42.60;;;;;;;8.15;78.84;99020.60;86065;1284;22596;-75
2022/10/14 06:20:39;;;;;;;106.70;40.90;;;;;;;8.18;78.80;99023.30;85902;1287;99353;-74
2022/10/14 06:22:41;;;;;;;97.70;42.30;;;;;;;8.21;78.61;99025.50;85981;1290;22721;-75
2022/10/14 06:24:43;;;;;;;92.10;44.00;;;;;;;8.25;79.08;99023.92;85851;1294;25241;-75
2022/10/14 06:26:47;;;;;;;112.70;42.00;;;;;;;8.28;79.04;99026.42;85773;1283;99422;-74
2022/10/14 06:28:49;;;;;;;113.50;44.60;;;;;;;8.33;78.90;99025.21;85988;1291;22444;-74
2022/10/14 06:30:53;;;;;;;141.00;42.90;;;;;;;8.38;79.01;99028.85;85976;1292;22528;-75
2022/10/14 06:32:56;;;;;;;127.60;46.20;;;;;;;8.42;78.97;99025.90;86185;1291;97938;-74
2022/10/14 06:34:57;;;;;;;118.40;45.50;;;;;;;8.47;78.90;99023.29;85897;1294;25388;-75
2022/10/14 06:37:00;;;;;;;103.80;44.10;;;;;;;8.52;78.87;99023.98;86204;1290;24435;-74
2022/10/14 06:39:03;;;;;;;94.80;47.80;;;;;;;8.55;78.94;99030.85;86029;1289;99036;-76
2022/10/14 06:41:05;;;;;;;114.70;47.70;;;;;;;8.59;78.78;99030.17;85914;1293;23697;-73
2022/10/14 06:43:07;;;;;;;101.30;46.30;;;;;;;8.63;79.04;99032.83;86223;1291;22503;-73
2022/10/14 06:45:09;;;;;;;100.80;48.20;;;;;;;8.65;79.00;99029.93;85735;1293;98591;-74
2022/10/14 06:47:11;;;;;;;103.20;49.10;;;;;;;8.73;78.55;99032.27;86244;1288;22525;-75
2022/10/14 06:49:13;;;;;;;98.60;49.20;;;;;;;8.79;78.60;99028.52;85977;1294;22489;-74
2022/10/14 06:51:15;;;;;;;107.20;51.10;;;;;;;8.86;78.60;99032.46;86030;1294;98874;-74
2022/10/14 06:53:17;;;;;;;106.30;49.90;;;;;;;8.92;78.70;99031.33;86232;1286;22469;-73
2022/10/14 06:55:19;;;;;;;125.00;50.20;;;;;;;8.97;78.66;99031.48;86206;1289;24281;-74
2022/10/14 06:57:21;;;;;;;107.90;49.90;;;;;;;8.99;78.87;99027.70;86104;1290;98467;-74
2022/10/14 06:59:24;;;;;;;107.10;52.10;;;;;;;9.06;78.79;99036.90;85885;1292;22796;-73
2022/10/14 07:01:26;;;;;;;106.40;56.30;;;;;;;9.11;78.67;99040.38;86113;1289;22586;-74
2022/10/14 07:03:28;;;;;;;119.80;54.70;;;;;;;9.14;78.68;99039.02;85991;1291;97766;-73
2022/10/14 07:05:32;;;;;;;114.50;53.70;;;;;;;9.17;78.60;99034.89;86140;1286;25608;-74
2022/10/14 07:07:34;;;;;;;148.80;56.60;;;;;;;9.20;78.55;99030.55;86165;1289;22502;-75
2022/10/14 07:09:36;;;;;;;108.00;54.00;;;;;;;9.25;78.59;99028.40;85965;1291;99038;-74
2022/10/14 07:11:38;;;;;;;137.40;54.30;;;;;;;9.28;78.59;99030.52;86172;1297;22661;-74
2022/10/14 07:13:39;;;;;;;118.60;56.30;;;;;;;9.32;78.74;99025.98;86109;1298;22627;-74
2022/10/14 07:15:41;;;;;;;130.20;63.40;;;;;;;9.36;78.52;99021.27;86198;1294;100133;-75
2022/10/14 07:17:42;;;;;;;137.20;68.30;;;;;;;9.41;78.38;99020.89;86240;1293;22543;-74
2022/10/14 07:19:44;;;;;;;121.70;59.40;;;;;;;9.47;78.93;99024.84;86302;1290;22467;-74
2022/10/14 07:21:46;;;;;;;123.00;55.50;;;;;;;9.54;78.84;99021.55;86034;1294;98897;-74
2022/10/14 07:23:47;;;;;;;126.20;54.50;;;;;;;9.62;78.80;99024.00;86325;1290;22524;-75
2022/10/14 07:25:49;;;;;;;110.70;52.80;;;;;;;9.72;78.89;99028.85;86184;1289;26153;-74
2022/10/14 07:27:52;;;;;;;100.80;52.20;;;;;;;9.82;78.71;99024.91;86147;1283;98958;-73
2022/10/14 07:29:55;;;;;;;105.80;51.30;;;;;;;9.92;78.83;99022.72;86335;1291;22551;-73
2022/10/14 07:31:57;;;;;;;98.80;50.80;;;;;;;10.01;78.76;99022.46;86198;1289;24287;-74
2022/10/14 07:34:00;;;;;;;110.30;52.90;;;;;;;10.09;78.50;99022.66;86221;1296;99464;-74
2022/10/14 07:36:09;;;;;;;99.10;50.70;;;;;;;10.17;78.58;99024.92;86104;1289;22712;-74
2022/10/14 07:38:10;;;;;;;103.40;50.70;;;;;;;10.27;78.64;99020.59;86304;1283;97835;-73
2022/10/14 07:40:12;;;;;;;109.60;51.60;;;;;;;10.34;78.69;99018.36;86053;1289;22543;-73
2022/10/14 07:42:14;;;;;;;100.40;49.60;;;;;;;10.42;78.71;99017.12;85874;1292;24961;-74
2022/10/14 07:44:16;;;;;;;103.80;49.80;;;;;;;10.57;78.54;99024.34;86128;1290;98174;-74
2022/10/14 07:46:33;;;;;;;92.80;50.80;;;;;;;10.65;78.57;99021.67;86463;1286;22445;-73
2022/10/14 07:48:35;;;;;;;90.40;48.50;;;;;;;10.73;78.41;99022.18;86228;1293;24256;-74
2022/10/14 07:50:38;;;;;;;86.70;48.40;;;;;;;10.83;78.40;99023.46;86194;1288;99006;-73
2022/10/14 07:52:40;;;;;;;103.00;48.70;;;;;;;10.95;78.38;99022.00;86191;1284;22837;-74
2022/10/14 07:54:42;;;;;;;84.80;48.50;;;;;;;11.06;78.34;99023.20;86056;1290;26491;-74
2022/10/14 07:56:45;;;;;;;92.40;49.30;;;;;;;11.13;78.11;99021.61;85850;1293;98930;-73
2022/10/14 07:58:47;;;;;;;87.20;48.80;;;;;;;11.20;78.09;99019.67;85878;1300;22996;-73
2022/10/14 08:00:51;;;;;;;102.00;48.60;;;;;;;11.29;77.96;99025.77;86093;1289;23541;-75
2022/10/14 08:02:52;;;;;;;84.20;47.30;;;;;;;11.40;78.25;99020.80;86023;1290;99804;-73
2022/10/14 08:04:54;;;;;;;91.20;47.90;;;;;;;11.52;78.21;99018.60;85992;1289;25389;-73
2022/10/14 08:06:56;;;;;;;88.40;44.00;;;;;;;11.63;78.13;99017.89;86263;1287;22476;-72
2022/10/14 08:08:58;;;;;;;91.30;42.10;;;;;;;11.75;78.02;99017.98;86024;1291;99003;-74
2022/10/14 08:11:06;;;;;;;81.60;43.10;;;;;;;11.87;77.94;99018.77;86175;1291;22499;-74
2022/10/14 08:13:08;;;;;;;83.20;44.10;;;;;;;12.00;77.85;99015.45;85887;1294;25251;-72
2022/10/14 08:15:10;;;;;;;86.20;44.40;;;;;;;12.11;77.78;99013.61;86077;1289;98952;-74
2022/10/14 08:17:13;;;;;;;86.30;40.20;;;;;;;12.21;77.65;99013.83;86142;1289;22627;-74
2022/10/14 08:19:15;;;;;;;86.00;41.10;;;;;;;12.28;77.46;99011.29;86194;1289;22636;-73
2022/10/14 08:21:19;;;;;;;79.20;41.20;;;;;;;12.37;77.45;99009.40;86150;1291;98886;-73
2022/10/14 08:23:21;;;;;;;81.80;40.20;;;;;;;12.46;77.41;99009.27;85886;1294;23767;-74
2022/10/14 08:25:23;;;;;;;80.40;40.70;;;;;;;12.54;77.51;99009.17;86089;1289;22493;-73
2022/10/14 08:27:27;;;;;;;104.70;44.50;;;;;;;12.59;77.10;99009.40;85998;1289;99289;-73
2022/10/14 08:29:28;;;;;;;86.60;42.50;;;;;;;12.64;77.02;99010.01;86142;1294;24278;-72
2022/10/14 08:31:31;;;;;;;101.10;41.10;;;;;;;12.68;76.96;99009.64;85735;1295;25400;-74
2022/10/14 08:33:33;;;;;;;86.70;42.10;;;;;;;12.71;76.90;99010.68;85922;1293;99291;-72
2022/10/14 08:35:37;;;;;;;80.20;39.10;;;;;;;12.72;76.94;99014.35;86105;1296;22589;-74
2022/10/14 08:37:39;;;;;;;77.40;39.30;;;;;;;12.71;76.81;99012.29;85949;1290;24260;-72
2022/10/14 08:39:40;;;;;;;91.70;43.50;;;;;;;12.70;76.94;99014.09;85967;1294;98971;-73
2022/10/14 08:42:10;;;;;;;72.60;39.40;;;;;;;12.70;77.07;99014.64;85993;1290;24334;-74
2022/10/14 08:44:29;;;;;;;76.00;42.10;;;;;;;12.69;76.87;99009.89;86063;1294;99494;-74
2022/10/14 08:47:01;;;;;;;99.70;41.30;;;;;;;12.70;76.75;99016.73;86050;1290;22493;-73
2022/10/14 08:49:22;;;;;;;104.70;40.60;;;;;;;12.69;76.85;99008.83;86110;1289;22482;-73
2022/10/14 08:51:26;;;;;;;;;;;;;;;12.71;76.81;99009.27;85940;1290;99181;-73
2022/10/14 08:53:35;;;;;;;93.00;40.70;;;;;;;12.69;76.67;99006.54;85943;1297;22505;-74
2022/10/14 08:55:40;;;;;;;76.40;39.50;;;;;;;12.71;76.60;99004.70;86011;1294;23937;-74
2022/10/14 08:57:50;;;;;;;89.70;41.00;;;;;;;12.72;76.60;99006.25;85711;1292;99368;-74
2022/10/14 08:59:53;;;;;;;92.00;42.90;;;;;;;12.71;76.52;99003.46;85987;1297;22515;-74
2022/10/14 09:02:00;;;;;;;84.70;42.90;;;;;;;12.72;76.34;99000.05;85799;1292;22496;-74
2022/10/14 09:04:12;;;;;;;90.90;42.70;;;;;;;12.76;76.51;99000.85;86015;1296;97548;-74
2022/10/14 09:06:23;;;;;;;103.50;43.70;;;;;;;12.82;76.43;99001.09;85891;1289;22909;-75
2022/10/14 09:08:42;;;;;;;85.40;42.70;;;;;;;12.89;76.51;98995.92;85818;1289;98077;-75
2022/10/14 09:10:44;;;;;;;89.20;42.50;;;;;;;12.98;76.24;98998.60;85902;1291;24266;-75
2022/10/14 09:12:46;;;;;;;104.10;41.40;;;;;;;13.04;76.19;98999.83;85864;1296;23396;-73
2022/10/14 09:15:00;;;;;;;91.40;41.10;;;;;;;13.12;76.16;99001.34;85907;1291;98103;-73
2022/10/14 09:17:10;;;;;;;86.80;39.70;;;;;;;13.17;75.98;99001.54;85823;1293;22525;-74
2022/10/14 09:19:21;;;;;;;75.10;39.70;;;;;;;13.24;76.06;99005.16;85794;1283;24250;-73
2022/10/14 09:21:25;;;;;;;80.00;38.80;;;;;;;13.31;76.03;99001.45;85765;1290;99049;-74
2022/10/14 09:23:27;;;;;;;69.10;39.30;;;;;;;13.40;75.91;99000.06;85893;1297;22576;-74
2022/10/14 09:25:32;;;;;;;85.20;39.30;;;;;;;13.47;75.73;98996.83;86088;1289;24339;-74
2022/10/14 09:27:34;;;;;;;80.80;38.90;;;;;;;13.51;75.78;99001.34;85923;1293;97948;-74
2022/10/14 09:29:41;;;;;;;71.70;38.50;;;;;;;13.56;75.99;99005.09;85752;1290;22647;-75
2022/10/14 09:31:43;;;;;;;75.40;37.70;;;;;;;13.66;75.96;99006.27;85774;1294;22998;-75
2022/10/14 09:33:45;;;;;;;76.10;34.60;;;;;;;13.73;75.73;99006.37;85720;1289;99090;-74
2022/10/14 09:35:47;;;;;;;99.30;38.00;;;;;;;13.82;75.65;99008.34;85900;1293;22614;-74
2022/10/14 09:37:49;;;;;;;85.00;38.10;;;;;;;13.88;75.47;99004.75;85808;1292;22539;-74
2022/10/14 09:39:55;;;;;;;100.40;35.60;;;;;;;13.95;75.61;99005.19;85650;1286;98868;-75
2022/10/14 09:41:58;;;;;;;77.00;38.00;;;;;;;14.01;75.33;98998.64;85823;1289;22540;-74
2022/10/14 09:44:21;;;;;;;85.60;35.40;;;;;;;14.09;75.43;99001.16;85790;1292;22503;-75